• Join FlightAware (Why Join?)
  • Login
  • US Flag 
04:25PM EDT


 

Airport Tracker/Info


-or-


 

Live Flight TrackerFlight Track Log ✈ N761EA ✈ 26-Dec-2013 ✈ KLMO - KCOD

Flight Track Log - Related Links

Times and Time Zones

All times are in EST time to prevent confusion due to time zone crossing. See the N761EA flight status page for this flight to view local times or setup timezone preferences in your user account.

Time Position Orientation Groundspeed Altitude Reporting Facility
EST Latitude Longitude Course Direction KTS MPH feet Rate Location/Type
06:13PM 40.3558 -105.2178 342° North 128 147 10,800  Level Denver Center
06:14PM 40.3886 -105.2319 342° North 125 144 11,200 360 Climbing Denver Center
06:17PM 40.4021 -105.2639 299° West  Level FlightAware Approximate
06:24PM 40.5559 -105.3940 327° Northwest  Level Estimated
06:25PM 40.5766 -105.4149 322° Northwest  Level FlightAware Approximate
06:26PM 40.5973 -105.4359 322° Northwest  Level FlightAware Approximate
06:27PM 40.6180 -105.4569 322° Northwest  Level FlightAware Approximate
06:28PM 40.6387 -105.4779 322° Northwest  Level FlightAware Approximate
06:29PM 40.6594 -105.4989 322° Northwest  Level FlightAware Approximate
06:30PM 40.6801 -105.5199 322° Northwest  Level FlightAware Approximate
06:31PM 40.7008 -105.5410 322° Northwest  Level FlightAware Approximate
06:32PM 40.7215 -105.5620 322° Northwest  Level FlightAware Approximate
06:33PM 40.7421 -105.5831 322° Northwest  Level FlightAware Approximate
06:34PM 40.7628 -105.6042 322° Northwest  Level FlightAware Approximate
06:35PM 40.7835 -105.6253 322° Northwest  Level FlightAware Approximate
06:36PM 40.8041 -105.6464 322° Northwest  Level FlightAware Approximate
06:37PM 40.8248 -105.6675 322° Northwest  Level FlightAware Approximate
06:38PM 40.8454 -105.6886 322° Northwest  Level FlightAware Approximate
06:39PM 40.8661 -105.7098 322° Northwest  Level FlightAware Approximate
06:40PM 40.8867 -105.7309 322° Northwest  Level FlightAware Approximate
06:41PM 40.9074 -105.7521 322° Northwest  Level FlightAware Approximate
06:42PM 40.9280 -105.7733 322° Northwest  Level FlightAware Approximate
06:43PM 40.9486 -105.7945 322° Northwest  Level FlightAware Approximate
06:44PM 40.9693 -105.8157 322° Northwest  Level FlightAware Approximate
06:45PM 40.9899 -105.8370 322° Northwest  Level FlightAware Approximate
06:46PM 41.0105 -105.8582 322° Northwest  Level FlightAware Approximate
06:47PM 41.0311 -105.8794 322° Northwest  Level FlightAware Approximate
06:48PM 41.0517 -105.9007 322° Northwest  Level FlightAware Approximate
06:49PM 41.0738 -105.9193 328° Northwest  Level Estimated
06:50PM 41.0955 -105.9386 326° Northwest  Level FlightAware Approximate
06:51PM 41.1172 -105.9578 326° Northwest  Level FlightAware Approximate
06:52PM 41.1389 -105.9771 326° Northwest  Level FlightAware Approximate
06:53PM 41.1606 -105.9964 326° Northwest  Level FlightAware Approximate
06:54PM 41.1827 -106.0151 328° Northwest  Level Estimated
06:55PM 41.2048 -106.0335 328° Northwest  Level FlightAware Approximate
06:56PM 41.2269 -106.0519 328° Northwest  Level FlightAware Approximate
06:57PM 41.2491 -106.0703 328° Northwest  Level FlightAware Approximate
06:58PM 41.2712 -106.0888 328° Northwest  Level FlightAware Approximate
06:59PM 41.2933 -106.1072 328° Northwest  Level FlightAware Approximate
07:00PM 41.3155 -106.1257 328° Northwest  Level FlightAware Approximate
07:01PM 41.3376 -106.1442 328° Northwest  Level FlightAware Approximate
07:02PM 41.3597 -106.1627 328° Northwest  Level FlightAware Approximate
07:03PM 41.3818 -106.1812 328° Northwest  Level FlightAware Approximate
07:04PM 41.4039 -106.1997 328° Northwest  Level FlightAware Approximate
07:05PM 41.4261 -106.2183 328° Northwest  Level FlightAware Approximate
07:06PM 41.4482 -106.2368 328° Northwest  Level FlightAware Approximate
07:07PM 41.4703 -106.2554 328° Northwest  Level FlightAware Approximate
07:08PM 41.4924 -106.2739 328° Northwest  Level FlightAware Approximate
07:09PM 41.5145 -106.2925 328° Northwest  Level FlightAware Approximate
07:10PM 41.5366 -106.3111 328° Northwest  Level FlightAware Approximate
07:11PM 41.5587 -106.3297 328° Northwest  Level FlightAware Approximate
07:12PM 41.5808 -106.3484 328° Northwest  Level FlightAware Approximate
07:13PM 41.6029 -106.3670 328° Northwest  Level FlightAware Approximate
07:14PM 41.6250 -106.3857 328° Northwest  Level FlightAware Approximate
07:15PM 41.6470 -106.4043 328° Northwest  Level FlightAware Approximate
07:16PM 41.6691 -106.4230 328° Northwest  Level FlightAware Approximate
07:17PM 41.6912 -106.4417 328° Northwest  Level FlightAware Approximate
07:18PM 41.7133 -106.4604 328° Northwest  Level FlightAware Approximate
07:19PM 41.7353 -106.4791 328° Northwest  Level FlightAware Approximate
07:20PM 41.7574 -106.4978 328° Northwest  Level FlightAware Approximate
07:21PM 41.7795 -106.5166 328° Northwest  Level FlightAware Approximate
07:22PM 41.8015 -106.5353 328° Northwest  Level FlightAware Approximate
07:23PM 41.8236 -106.5541 328° Northwest  Level FlightAware Approximate
07:24PM 41.8457 -106.5729 328° Northwest  Level FlightAware Approximate
07:25PM 41.8677 -106.5917 328° Northwest  Level FlightAware Approximate
07:26PM 41.8898 -106.6105 328° Northwest  Level FlightAware Approximate
07:27PM 41.9118 -106.6293 328° Northwest  Level FlightAware Approximate
07:28PM 41.9338 -106.6481 328° Northwest  Level FlightAware Approximate
07:29PM 41.9559 -106.6669 328° Northwest  Level FlightAware Approximate
07:30PM 41.9779 -106.6858 328° Northwest  Level FlightAware Approximate
07:31PM 42.0000 -106.7047 328° Northwest  Level FlightAware Approximate
07:32PM 42.0220 -106.7235 328° Northwest  Level FlightAware Approximate
07:33PM 42.0440 -106.7424 328° Northwest  Level FlightAware Approximate
07:34PM 42.0661 -106.7614 327° Northwest  Level FlightAware Approximate
07:35PM 42.0881 -106.7803 327° Northwest  Level FlightAware Approximate
07:36PM 42.1101 -106.7992 327° Northwest  Level FlightAware Approximate
07:37PM 42.1321 -106.8182 327° Northwest  Level FlightAware Approximate
07:38PM 42.1541 -106.8371 327° Northwest  Level FlightAware Approximate
07:39PM 42.1761 -106.8561 327° Northwest  Level FlightAware Approximate
07:40PM 42.1982 -106.8751 327° Northwest  Level FlightAware Approximate
07:41PM 42.2201 -106.8941 327° Northwest  Level FlightAware Approximate
07:42PM 42.2421 -106.9131 327° Northwest  Level FlightAware Approximate
07:43PM 42.2641 -106.9321 327° Northwest  Level FlightAware Approximate
07:44PM 42.2861 -106.9512 327° Northwest  Level FlightAware Approximate
07:45PM 42.3081 -106.9702 327° Northwest  Level FlightAware Approximate
07:46PM 42.3301 -106.9893 327° Northwest  Level FlightAware Approximate
07:47PM 42.3521 -107.0084 327° Northwest  Level FlightAware Approximate
07:48PM 42.3741 -107.0275 327° Northwest  Level FlightAware Approximate
07:49PM 42.3959 -107.0469 324° Northwest  Level Estimated
07:50PM 42.4170 -107.0678 324° Northwest  Level FlightAware Approximate
07:51PM 42.4381 -107.0887 324° Northwest  Level FlightAware Approximate
07:52PM 42.4591 -107.1096 324° Northwest  Level FlightAware Approximate
07:53PM 42.4802 -107.1305 324° Northwest  Level FlightAware Approximate
07:54PM 42.5021 -107.1499 326° Northwest  Level Estimated
07:55PM 42.5238 -107.1696 326° Northwest  Level FlightAware Approximate
07:56PM 42.5455 -107.1894 326° Northwest  Level FlightAware Approximate
07:57PM 42.5672 -107.2091 326° Northwest  Level FlightAware Approximate
07:58PM 42.5888 -107.2289 326° Northwest  Level FlightAware Approximate
07:59PM 42.6105 -107.2486 326° Northwest  Level FlightAware Approximate
08:00PM 42.6322 -107.2684 326° Northwest  Level FlightAware Approximate
08:01PM 42.6539 -107.2882 326° Northwest  Level FlightAware Approximate
08:02PM 42.6756 -107.3080 326° Northwest  Level FlightAware Approximate
08:03PM 42.6973 -107.3278 326° Northwest  Level FlightAware Approximate
08:04PM 42.7189 -107.3477 326° Northwest  Level FlightAware Approximate
08:05PM 42.7406 -107.3675 326° Northwest  Level FlightAware Approximate
08:06PM 42.7623 -107.3874 326° Northwest  Level FlightAware Approximate
08:07PM 42.7839 -107.4073 326° Northwest  Level FlightAware Approximate
08:08PM 42.8056 -107.4272 326° Northwest  Level FlightAware Approximate
08:09PM 42.8273 -107.4471 326° Northwest  Level FlightAware Approximate
08:10PM 42.8489 -107.4670 326° Northwest  Level FlightAware Approximate
08:11PM 42.8707 -107.4866 327° Northwest  Level Estimated
08:12PM 42.8926 -107.5062 327° Northwest  Level FlightAware Approximate
08:13PM 42.9144 -107.5257 327° Northwest  Level FlightAware Approximate
08:14PM 42.9362 -107.5453 327° Northwest  Level FlightAware Approximate
08:15PM 42.9580 -107.5649 327° Northwest  Level FlightAware Approximate
08:16PM 42.9799 -107.5845 327° Northwest  Level FlightAware Approximate
08:17PM 43.0017 -107.6042 327° Northwest  Level FlightAware Approximate
08:18PM 43.0235 -107.6238 327° Northwest  Level FlightAware Approximate
08:19PM 43.0453 -107.6435 327° Northwest  Level FlightAware Approximate
08:20PM 43.0671 -107.6631 327° Northwest  Level FlightAware Approximate
08:21PM 43.0889 -107.6828 327° Northwest  Level FlightAware Approximate
08:22PM 43.1107 -107.7025 327° Northwest  Level FlightAware Approximate
08:23PM 43.1325 -107.7222 327° Northwest  Level FlightAware Approximate
08:24PM 43.1543 -107.7420 327° Northwest  Level FlightAware Approximate
08:25PM 43.1761 -107.7617 327° Northwest  Level FlightAware Approximate
08:26PM 43.1979 -107.7815 326° Northwest  Level Estimated
08:27PM 43.2195 -107.8015 326° Northwest  Level FlightAware Approximate
08:28PM 43.2412 -107.8215 326° Northwest  Level FlightAware Approximate
08:29PM 43.2629 -107.8416 326° Northwest  Level FlightAware Approximate
08:30PM 43.2845 -107.8616 326° Northwest  Level FlightAware Approximate
08:31PM 43.3062 -107.8817 326° Northwest  Level FlightAware Approximate
08:32PM 43.3279 -107.9017 326° Northwest  Level FlightAware Approximate
08:33PM 43.3495 -107.9218 326° Northwest  Level FlightAware Approximate
08:34PM 43.3712 -107.9419 326° Northwest  Level FlightAware Approximate
08:35PM 43.3928 -107.9620 326° Northwest  Level FlightAware Approximate
08:36PM 43.4145 -107.9821 326° Northwest  Level FlightAware Approximate
08:37PM 43.4361 -108.0023 326° Northwest  Level FlightAware Approximate
08:38PM 43.4577 -108.0224 326° Northwest  Level FlightAware Approximate
08:39PM 43.4794 -108.0426 326° Northwest  Level FlightAware Approximate
08:40PM 43.5010 -108.0628 326° Northwest  Level FlightAware Approximate
08:41PM 43.5226 -108.0830 326° Northwest  Level FlightAware Approximate
08:42PM 43.5443 -108.1032 326° Northwest  Level FlightAware Approximate
08:43PM 43.5659 -108.1234 326° Northwest  Level FlightAware Approximate
08:44PM 43.5875 -108.1436 326° Northwest  Level FlightAware Approximate
08:45PM 43.6091 -108.1639 326° Northwest  Level FlightAware Approximate
08:46PM 43.6307 -108.1842 326° Northwest  Level FlightAware Approximate
08:47PM 43.6523 -108.2045 326° Northwest  Level FlightAware Approximate
08:48PM 43.6739 -108.2247 326° Northwest  Level FlightAware Approximate
08:49PM 43.6955 -108.2451 326° Northwest  Level FlightAware Approximate
08:50PM 43.7171 -108.2654 326° Northwest  Level FlightAware Approximate
08:51PM 43.7387 -108.2857 326° Northwest  Level FlightAware Approximate
08:52PM 43.7603 -108.3061 326° Northwest  Level FlightAware Approximate
08:53PM 43.7819 -108.3265 326° Northwest  Level FlightAware Approximate
08:54PM 43.8035 -108.3468 326° Northwest  Level FlightAware Approximate
08:55PM 43.8250 -108.3672 326° Northwest  Level FlightAware Approximate
08:56PM 43.8466 -108.3876 326° Northwest  Level FlightAware Approximate
08:57PM 43.8682 -108.4081 326° Northwest  Level FlightAware Approximate
08:58PM 43.8898 -108.4285 326° Northwest  Level FlightAware Approximate
08:59PM 43.9113 -108.4490 326° Northwest  Level FlightAware Approximate
09:00PM 43.9329 -108.4695 326° Northwest  Level FlightAware Approximate
09:01PM 43.9544 -108.4900 326° Northwest  Level FlightAware Approximate
09:02PM 43.9760 -108.5105 326° Northwest  Level FlightAware Approximate
09:03PM 43.9977 -108.5307 327° Northwest  Level Estimated
09:04PM 44.0197 -108.5503 327° Northwest  Level FlightAware Approximate
09:05PM 44.0416 -108.5699 327° Northwest  Level FlightAware Approximate
09:06PM 44.0636 -108.5895 327° Northwest  Level FlightAware Approximate
09:07PM 44.0856 -108.6091 327° Northwest  Level FlightAware Approximate
09:08PM 44.1076 -108.6287 327° Northwest  Level FlightAware Approximate
09:09PM 44.1296 -108.6484 327° Northwest  Level FlightAware Approximate
09:10PM 44.1511 -108.6690 324° Northwest  Level Estimated
09:11PM 44.1725 -108.6900 325° Northwest  Level FlightAware Approximate
09:12PM 44.1937 -108.7111 325° Northwest  Level FlightAware Approximate
09:13PM 44.2150 -108.7322 325° Northwest  Level FlightAware Approximate
09:14PM 44.2363 -108.7533 325° Northwest  Level FlightAware Approximate
09:15PM 44.2576 -108.7745 325° Northwest  Level FlightAware Approximate
09:16PM 44.2793 -108.7949 327° Northwest  Level Estimated
09:17PM 44.3010 -108.8151 326° Northwest  Level FlightAware Approximate
09:18PM 44.3227 -108.8354 326° Northwest  Level FlightAware Approximate
09:19PM 44.3445 -108.8556 326° Northwest  Level FlightAware Approximate
09:20PM 44.3662 -108.8759 326° Northwest  Level FlightAware Approximate
09:21PM 44.3879 -108.8961 326° Northwest  Level FlightAware Approximate
09:22PM 44.4097 -108.9164 326° Northwest  Level FlightAware Approximate
09:23PM 44.4314 -108.9368 326° Northwest  Level FlightAware Approximate
09:24PM 44.4531 -108.9571 326° Northwest  Level FlightAware Approximate
09:25PM 44.4748 -108.9774 326° Northwest  Level FlightAware Approximate
09:26PM 44.4965 -108.9978 326° Northwest  Level FlightAware Approximate
09:27PM 44.5167 -109.0167 327° Northwest  Level FlightAware Approximate
09:28PM 44.5202 -109.0238 327° Northwest  Level Estimated
09:29PM 44.5167 -109.0167 327° Northwest  Level FlightAware Approximate
09:30PM 44.5202 -109.0238 327° Northwest  Level Estimated
09:31PM 44.5167 -109.0167 327° Northwest  Level FlightAware Approximate
09:32PM 44.5202 -109.0238 327° Northwest  Level Estimated
09:33PM 44.5167 -109.0167 327° Northwest  Level FlightAware Approximate
09:34PM 44.5202 -109.0238 327° Northwest  Level Estimated
09:35PM 44.5167 -109.0167 327° Northwest  Level FlightAware Approximate
09:36PM 44.5202 -109.0238 327° Northwest  Level Estimated
09:37PM 44.5167 -109.0167 327° Northwest  Level FlightAware Approximate
09:38PM 44.5202 -109.0238 327° Northwest  Level Estimated
09:39PM 44.5167 -109.0167 327° Northwest  Level FlightAware Approximate
09:40PM 44.5202 -109.0238 327° Northwest  Level Estimated
09:41PM 44.5167 -109.0167 327° Northwest  Level FlightAware Approximate
09:42PM 44.5202 -109.0238 327° Northwest  Level Estimated
09:43PM 44.5167 -109.0167 327° Northwest  Level FlightAware Approximate
09:44PM 44.5202 -109.0238 327° Northwest  Level Estimated
09:45PM 44.5167 -109.0167 327° Northwest  Level FlightAware Approximate
09:46PM 44.5202 -109.0238 327° Northwest  Level Estimated
09:47PM 44.5167 -109.0167 327° Northwest  Level FlightAware Approximate
09:48PM 44.5202 -109.0238 327° Northwest  Level Estimated